sensor_id;sensor_type;location;lat;lon;timestamp;P1;durP1;ratioP1;P2;durP2;ratioP2
57627;SDS011;43451;49.060;10.616;2023-08-30T00:00:18;10.57;;;9.27;;
57627;SDS011;43451;49.060;10.616;2023-08-30T00:02:46;10.65;;;9.65;;
57627;SDS011;43451;49.060;10.616;2023-08-30T00:05:12;10.68;;;8.65;;
57627;SDS011;43451;49.060;10.616;2023-08-30T00:07:38;10.27;;;9.15;;
57627;SDS011;43451;49.060;10.616;2023-08-30T00:10:04;10.15;;;9.25;;
57627;SDS011;43451;49.060;10.616;2023-08-30T00:12:29;10.60;;;9.50;;
57627;SDS011;43451;49.060;10.616;2023-08-30T00:14:55;10.55;;;9.45;;
57627;SDS011;43451;49.060;10.616;2023-08-30T00:17:21;12.60;;;10.10;;
57627;SDS011;43451;49.060;10.616;2023-08-30T00:19:47;11.60;;;10.13;;
57627;SDS011;43451;49.060;10.616;2023-08-30T00:22:13;11.00;;;9.90;;
57627;SDS011;43451;49.060;10.616;2023-08-30T00:24:39;11.27;;;10.18;;
57627;SDS011;43451;49.060;10.616;2023-08-30T00:27:05;11.23;;;10.07;;
57627;SDS011;43451;49.060;10.616;2023-08-30T00:29:30;12.25;;;10.25;;
57627;SDS011;43451;49.060;10.616;2023-08-30T00:31:56;12.00;;;10.80;;
57627;SDS011;43451;49.060;10.616;2023-08-30T00:34:21;12.82;;;10.75;;
57627;SDS011;43451;49.060;10.616;2023-08-30T00:36:47;12.30;;;11.10;;
57627;SDS011;43451;49.060;10.616;2023-08-30T00:39:12;13.15;;;11.55;;
57627;SDS011;43451;49.060;10.616;2023-08-30T00:41:38;12.60;;;11.15;;
57627;SDS011;43451;49.060;10.616;2023-08-30T00:44:04;12.63;;;11.35;;
57627;SDS011;43451;49.060;10.616;2023-08-30T00:46:29;16.65;;;11.73;;
57627;SDS011;43451;49.060;10.616;2023-08-30T00:48:55;13.25;;;11.88;;
57627;SDS011;43451;49.060;10.616;2023-08-30T00:51:21;13.30;;;11.85;;
57627;SDS011;43451;49.060;10.616;2023-08-30T00:53:47;13.90;;;12.27;;
57627;SDS011;43451;49.060;10.616;2023-08-30T00:56:14;13.48;;;11.93;;
57627;SDS011;43451;49.060;10.616;2023-08-30T00:58:40;14.00;;;11.50;;
57627;SDS011;43451;49.060;10.616;2023-08-30T01:01:06;13.65;;;11.75;;
57627;SDS011;43451;49.060;10.616;2023-08-30T01:03:33;15.63;;;11.80;;
57627;SDS011;43451;49.060;10.616;2023-08-30T01:06:00;14.13;;;11.68;;
57627;SDS011;43451;49.060;10.616;2023-08-30T01:08:25;13.23;;;11.88;;
57627;SDS011;43451;49.060;10.616;2023-08-30T01:13:24;16.33;;;12.73;;
57627;SDS011;43451;49.060;10.616;2023-08-30T01:15:55;14.80;;;12.35;;
57627;SDS011;43451;49.060;10.616;2023-08-30T01:18:22;14.35;;;12.18;;
57627;SDS011;43451;49.060;10.616;2023-08-30T01:20:52;15.43;;;12.43;;
57627;SDS011;43451;49.060;10.616;2023-08-30T01:28:46;15.75;;;12.95;;
57627;SDS011;43451;49.060;10.616;2023-08-30T01:31:13;14.18;;;12.70;;
57627;SDS011;43451;49.060;10.616;2023-08-30T01:33:39;14.57;;;13.07;;
57627;SDS011;43451;49.060;10.616;2023-08-30T01:36:06;14.48;;;12.93;;
57627;SDS011;43451;49.060;10.616;2023-08-30T01:38:32;14.55;;;13.02;;
57627;SDS011;43451;49.060;10.616;2023-08-30T01:40:59;13.63;;;12.23;;
57627;SDS011;43451;49.060;10.616;2023-08-30T01:43:28;14.00;;;12.13;;
57627;SDS011;43451;49.060;10.616;2023-08-30T01:45:55;14.60;;;13.00;;
57627;SDS011;43451;49.060;10.616;2023-08-30T01:48:21;14.50;;;12.88;;
57627;SDS011;43451;49.060;10.616;2023-08-30T01:50:48;15.57;;;12.88;;
57627;SDS011;43451;49.060;10.616;2023-08-30T01:53:14;14.25;;;12.35;;
57627;SDS011;43451;49.060;10.616;2023-08-30T01:55:40;14.68;;;13.07;;
57627;SDS011;43451;49.060;10.616;2023-08-30T01:58:07;14.40;;;12.93;;
57627;SDS011;43451;49.060;10.616;2023-08-30T02:00:34;13.68;;;12.27;;
57627;SDS011;43451;49.060;10.616;2023-08-30T02:03:06;15.50;;;11.98;;
57627;SDS011;43451;49.060;10.616;2023-08-30T02:08:29;13.98;;;12.45;;
57627;SDS011;43451;49.060;10.616;2023-08-30T02:11:19;13.15;;;11.75;;
57627;SDS011;43451;49.060;10.616;2023-08-30T02:13:48;13.27;;;11.30;;
57627;SDS011;43451;49.060;10.616;2023-08-30T02:16:15;13.97;;;12.50;;
57627;SDS011;43451;49.060;10.616;2023-08-30T02:18:43;13.50;;;11.82;;
57627;SDS011;43451;49.060;10.616;2023-08-30T02:21:09;12.68;;;11.38;;
57627;SDS011;43451;49.060;10.616;2023-08-30T02:23:35;15.10;;;11.82;;
57627;SDS011;43451;49.060;10.616;2023-08-30T02:26:01;13.02;;;11.43;;
57627;SDS011;43451;49.060;10.616;2023-08-30T02:28:28;13.05;;;11.75;;
57627;SDS011;43451;49.060;10.616;2023-08-30T02:30:54;14.43;;;12.40;;
57627;SDS011;43451;49.060;10.616;2023-08-30T02:33:20;14.45;;;12.95;;
57627;SDS011;43451;49.060;10.616;2023-08-30T02:35:45;14.45;;;12.60;;
57627;SDS011;43451;49.060;10.616;2023-08-30T02:38:11;15.30;;;12.98;;
57627;SDS011;43451;49.060;10.616;2023-08-30T02:40:36;15.15;;;13.15;;
57627;SDS011;43451;49.060;10.616;2023-08-30T02:43:02;19.00;;;12.57;;
57627;SDS011;43451;49.060;10.616;2023-08-30T02:45:27;14.98;;;13.23;;
57627;SDS011;43451;49.060;10.616;2023-08-30T02:47:55;15.88;;;13.35;;
57627;SDS011;43451;49.060;10.616;2023-08-30T02:50:23;15.98;;;13.95;;
57627;SDS011;43451;49.060;10.616;2023-08-30T02:52:49;16.33;;;14.10;;
57627;SDS011;43451;49.060;10.616;2023-08-30T02:55:15;15.13;;;12.60;;
57627;SDS011;43451;49.060;10.616;2023-08-30T02:57:41;14.15;;;12.63;;
57627;SDS011;43451;49.060;10.616;2023-08-30T03:00:06;14.07;;;12.35;;
57627;SDS011;43451;49.060;10.616;2023-08-30T03:02:33;16.88;;;12.95;;
57627;SDS011;43451;49.060;10.616;2023-08-30T03:04:59;14.63;;;13.05;;
57627;SDS011;43451;49.060;10.616;2023-08-30T03:07:25;14.88;;;12.50;;
57627;SDS011;43451;49.060;10.616;2023-08-30T03:09:54;14.60;;;11.63;;
57627;SDS011;43451;49.060;10.616;2023-08-30T03:12:19;15.80;;;12.73;;
57627;SDS011;43451;49.060;10.616;2023-08-30T03:14:45;14.45;;;12.80;;
57627;SDS011;43451;49.060;10.616;2023-08-30T03:17:11;15.85;;;12.30;;
57627;SDS011;43451;49.060;10.616;2023-08-30T03:19:36;17.67;;;12.70;;
57627;SDS011;43451;49.060;10.616;2023-08-30T03:22:02;14.98;;;13.00;;
57627;SDS011;43451;49.060;10.616;2023-08-30T03:24:27;15.35;;;13.18;;
57627;SDS011;43451;49.060;10.616;2023-08-30T03:26:53;15.23;;;12.88;;
57627;SDS011;43451;49.060;10.616;2023-08-30T03:29:18;15.80;;;13.05;;
57627;SDS011;43451;49.060;10.616;2023-08-30T03:31:44;14.70;;;12.82;;
57627;SDS011;43451;49.060;10.616;2023-08-30T03:34:09;16.42;;;13.48;;
57627;SDS011;43451;49.060;10.616;2023-08-30T03:36:35;15.35;;;13.13;;
57627;SDS011;43451;49.060;10.616;2023-08-30T03:39:00;15.02;;;12.77;;
57627;SDS011;43451;49.060;10.616;2023-08-30T03:41:26;15.20;;;12.98;;
57627;SDS011;43451;49.060;10.616;2023-08-30T03:43:51;15.80;;;13.07;;
57627;SDS011;43451;49.060;10.616;2023-08-30T03:46:17;15.60;;;12.20;;
57627;SDS011;43451;49.060;10.616;2023-08-30T03:48:43;14.23;;;12.25;;
57627;SDS011;43451;49.060;10.616;2023-08-30T03:51:08;15.02;;;12.25;;
57627;SDS011;43451;49.060;10.616;2023-08-30T03:53:34;14.07;;;12.50;;
57627;SDS011;43451;49.060;10.616;2023-08-30T03:55:59;15.50;;;13.18;;
57627;SDS011;43451;49.060;10.616;2023-08-30T03:58:25;15.60;;;13.27;;
57627;SDS011;43451;49.060;10.616;2023-08-30T04:00:50;15.30;;;13.05;;
57627;SDS011;43451;49.060;10.616;2023-08-30T04:03:16;14.65;;;12.63;;
57627;SDS011;43451;49.060;10.616;2023-08-30T04:05:42;14.63;;;13.05;;
57627;SDS011;43451;49.060;10.616;2023-08-30T04:08:08;14.88;;;12.65;;
57627;SDS011;43451;49.060;10.616;2023-08-30T04:10:36;15.65;;;12.48;;
57627;SDS011;43451;49.060;10.616;2023-08-30T04:13:02;13.57;;;12.13;;
57627;SDS011;43451;49.060;10.616;2023-08-30T04:15:28;14.00;;;12.30;;
57627;SDS011;43451;49.060;10.616;2023-08-30T04:17:53;16.27;;;11.82;;
57627;SDS011;43451;49.060;10.616;2023-08-30T04:20:19;17.63;;;13.55;;
57627;SDS011;43451;49.060;10.616;2023-08-30T04:22:45;15.07;;;12.60;;
57627;SDS011;43451;49.060;10.616;2023-08-30T04:25:10;14.93;;;11.88;;
57627;SDS011;43451;49.060;10.616;2023-08-30T04:27:36;15.60;;;12.48;;
57627;SDS011;43451;49.060;10.616;2023-08-30T04:30:01;14.13;;;12.60;;
57627;SDS011;43451;49.060;10.616;2023-08-30T04:32:27;13.73;;;12.23;;
57627;SDS011;43451;49.060;10.616;2023-08-30T04:34:53;13.82;;;12.43;;
57627;SDS011;43451;49.060;10.616;2023-08-30T04:37:18;15.20;;;13.65;;
57627;SDS011;43451;49.060;10.616;2023-08-30T04:39:47;15.25;;;13.65;;
57627;SDS011;43451;49.060;10.616;2023-08-30T04:42:13;15.20;;;13.43;;
57627;SDS011;43451;49.060;10.616;2023-08-30T04:44:39;18.45;;;13.65;;
57627;SDS011;43451;49.060;10.616;2023-08-30T04:47:04;15.55;;;13.30;;
57627;SDS011;43451;49.060;10.616;2023-08-30T04:49:30;17.63;;;13.88;;
57627;SDS011;43451;49.060;10.616;2023-08-30T04:51:55;15.45;;;13.80;;
57627;SDS011;43451;49.060;10.616;2023-08-30T04:54:20;15.35;;;13.40;;
57627;SDS011;43451;49.060;10.616;2023-08-30T04:56:52;16.52;;;13.90;;
57627;SDS011;43451;49.060;10.616;2023-08-30T04:59:17;17.23;;;14.30;;
57627;SDS011;43451;49.060;10.616;2023-08-30T05:01:43;15.98;;;14.25;;
57627;SDS011;43451;49.060;10.616;2023-08-30T05:04:10;17.23;;;14.35;;
57627;SDS011;43451;49.060;10.616;2023-08-30T05:06:36;17.80;;;14.52;;
57627;SDS011;43451;49.060;10.616;2023-08-30T05:09:02;17.45;;;14.65;;
57627;SDS011;43451;49.060;10.616;2023-08-30T05:11:28;18.92;;;14.52;;
57627;SDS011;43451;49.060;10.616;2023-08-30T05:13:54;17.35;;;14.50;;
57627;SDS011;43451;49.060;10.616;2023-08-30T05:16:20;16.50;;;14.23;;
57627;SDS011;43451;49.060;10.616;2023-08-30T05:18:45;18.38;;;15.02;;
57627;SDS011;43451;49.060;10.616;2023-08-30T05:21:13;17.57;;;15.13;;
57627;SDS011;43451;49.060;10.616;2023-08-30T05:23:39;18.23;;;14.93;;
57627;SDS011;43451;49.060;10.616;2023-08-30T05:26:08;17.48;;;13.68;;
57627;SDS011;43451;49.060;10.616;2023-08-30T05:28:39;19.83;;;15.38;;
57627;SDS011;43451;49.060;10.616;2023-08-30T05:31:05;20.77;;;16.88;;
57627;SDS011;43451;49.060;10.616;2023-08-30T05:33:31;19.75;;;17.23;;
57627;SDS011;43451;49.060;10.616;2023-08-30T05:35:56;22.67;;;18.13;;
57627;SDS011;43451;49.060;10.616;2023-08-30T05:38:22;23.17;;;18.73;;
57627;SDS011;43451;49.060;10.616;2023-08-30T05:40:47;21.88;;;18.20;;
57627;SDS011;43451;49.060;10.616;2023-08-30T05:43:13;24.65;;;19.17;;
57627;SDS011;43451;49.060;10.616;2023-08-30T05:45:38;24.02;;;19.23;;
57627;SDS011;43451;49.060;10.616;2023-08-30T05:48:04;26.42;;;20.33;;
57627;SDS011;43451;49.060;10.616;2023-08-30T05:50:30;24.98;;;19.23;;
57627;SDS011;43451;49.060;10.616;2023-08-30T05:52:56;26.33;;;19.67;;
57627;SDS011;43451;49.060;10.616;2023-08-30T05:55:21;23.90;;;18.75;;
57627;SDS011;43451;49.060;10.616;2023-08-30T05:57:47;24.25;;;20.15;;
57627;SDS011;43451;49.060;10.616;2023-08-30T06:00:13;24.00;;;20.08;;
57627;SDS011;43451;49.060;10.616;2023-08-30T06:02:39;23.38;;;19.67;;
57627;SDS011;43451;49.060;10.616;2023-08-30T06:05:05;25.63;;;19.75;;
57627;SDS011;43451;49.060;10.616;2023-08-30T06:07:31;25.65;;;20.35;;
57627;SDS011;43451;49.060;10.616;2023-08-30T06:09:56;24.73;;;19.52;;
57627;SDS011;43451;49.060;10.616;2023-08-30T06:12:22;28.58;;;19.65;;
57627;SDS011;43451;49.060;10.616;2023-08-30T06:14:47;22.85;;;18.77;;
57627;SDS011;43451;49.060;10.616;2023-08-30T06:17:18;24.45;;;19.83;;
57627;SDS011;43451;49.060;10.616;2023-08-30T06:19:44;25.33;;;19.33;;
57627;SDS011;43451;49.060;10.616;2023-08-30T06:22:10;29.13;;;21.08;;
57627;SDS011;43451;49.060;10.616;2023-08-30T06:24:36;26.83;;;20.92;;
57627;SDS011;43451;49.060;10.616;2023-08-30T06:27:01;26.02;;;19.55;;
57627;SDS011;43451;49.060;10.616;2023-08-30T06:29:27;29.27;;;19.40;;
57627;SDS011;43451;49.060;10.616;2023-08-30T06:31:53;27.75;;;20.15;;
57627;SDS011;43451;49.060;10.616;2023-08-30T06:34:18;27.20;;;19.17;;
57627;SDS011;43451;49.060;10.616;2023-08-30T06:36:43;26.58;;;19.30;;
57627;SDS011;43451;49.060;10.616;2023-08-30T06:39:09;26.13;;;20.27;;
57627;SDS011;43451;49.060;10.616;2023-08-30T06:41:34;31.45;;;20.20;;
57627;SDS011;43451;49.060;10.616;2023-08-30T06:44:00;24.42;;;19.13;;
57627;SDS011;43451;49.060;10.616;2023-08-30T06:46:25;26.77;;;19.58;;
57627;SDS011;43451;49.060;10.616;2023-08-30T06:48:51;29.10;;;19.88;;
57627;SDS011;43451;49.060;10.616;2023-08-30T06:51:16;23.77;;;19.02;;
57627;SDS011;43451;49.060;10.616;2023-08-30T06:53:42;25.00;;;18.40;;
57627;SDS011;43451;49.060;10.616;2023-08-30T06:56:07;24.90;;;19.13;;
57627;SDS011;43451;49.060;10.616;2023-08-30T06:58:32;32.83;;;18.85;;
57627;SDS011;43451;49.060;10.616;2023-08-30T07:00:58;25.05;;;17.73;;
57627;SDS011;43451;49.060;10.616;2023-08-30T07:03:24;22.63;;;17.63;;
57627;SDS011;43451;49.060;10.616;2023-08-30T07:05:53;23.08;;;17.75;;
57627;SDS011;43451;49.060;10.616;2023-08-30T07:08:18;22.00;;;17.02;;
57627;SDS011;43451;49.060;10.616;2023-08-30T07:10:44;22.90;;;17.75;;
57627;SDS011;43451;49.060;10.616;2023-08-30T07:13:09;24.42;;;17.15;;
57627;SDS011;43451;49.060;10.616;2023-08-30T07:15:38;19.75;;;16.48;;
57627;SDS011;43451;49.060;10.616;2023-08-30T07:18:04;19.85;;;15.60;;
57627;SDS011;43451;49.060;10.616;2023-08-30T07:20:31;19.05;;;15.55;;
57627;SDS011;43451;49.060;10.616;2023-08-30T07:22:56;16.52;;;14.55;;
57627;SDS011;43451;49.060;10.616;2023-08-30T07:25:22;17.40;;;14.50;;
57627;SDS011;43451;49.060;10.616;2023-08-30T07:27:47;17.02;;;13.65;;
57627;SDS011;43451;49.060;10.616;2023-08-30T07:30:13;16.17;;;14.02;;
57627;SDS011;43451;49.060;10.616;2023-08-30T07:32:40;18.02;;;15.07;;
57627;SDS011;43451;49.060;10.616;2023-08-30T07:35:05;19.98;;;14.30;;
57627;SDS011;43451;49.060;10.616;2023-08-30T07:37:31;16.75;;;14.00;;
57627;SDS011;43451;49.060;10.616;2023-08-30T07:39:57;16.45;;;13.10;;
57627;SDS011;43451;49.060;10.616;2023-08-30T07:42:22;14.75;;;12.93;;
57627;SDS011;43451;49.060;10.616;2023-08-30T07:44:48;16.27;;;13.45;;
57627;SDS011;43451;49.060;10.616;2023-08-30T07:47:13;17.38;;;13.23;;
57627;SDS011;43451;49.060;10.616;2023-08-30T07:49:38;16.70;;;13.43;;
57627;SDS011;43451;49.060;10.616;2023-08-30T07:52:04;15.75;;;14.05;;
57627;SDS011;43451;49.060;10.616;2023-08-30T07:54:30;14.32;;;12.82;;
57627;SDS011;43451;49.060;10.616;2023-08-30T07:56:56;15.95;;;14.05;;
57627;SDS011;43451;49.060;10.616;2023-08-30T07:59:21;16.83;;;12.77;;
57627;SDS011;43451;49.060;10.616;2023-08-30T08:01:48;14.88;;;13.05;;
57627;SDS011;43451;49.060;10.616;2023-08-30T08:04:13;14.32;;;12.68;;
57627;SDS011;43451;49.060;10.616;2023-08-30T08:06:39;13.63;;;12.13;;
57627;SDS011;43451;49.060;10.616;2023-08-30T08:09:05;14.23;;;12.73;;
57627;SDS011;43451;49.060;10.616;2023-08-30T08:11:32;14.55;;;12.98;;
57627;SDS011;43451;49.060;10.616;2023-08-30T08:13:58;15.48;;;12.23;;
57627;SDS011;43451;49.060;10.616;2023-08-30T08:16:23;13.50;;;12.10;;
57627;SDS011;43451;49.060;10.616;2023-08-30T08:18:48;17.77;;;12.07;;
57627;SDS011;43451;49.060;10.616;2023-08-30T08:21:15;14.60;;;13.07;;
57627;SDS011;43451;49.060;10.616;2023-08-30T08:23:41;14.73;;;12.45;;
57627;SDS011;43451;49.060;10.616;2023-08-30T08:26:06;16.60;;;11.32;;
57627;SDS011;43451;49.060;10.616;2023-08-30T08:28:33;13.55;;;11.80;;
57627;SDS011;43451;49.060;10.616;2023-08-30T08:30:58;12.32;;;11.00;;
57627;SDS011;43451;49.060;10.616;2023-08-30T08:33:24;12.93;;;11.48;;
57627;SDS011;43451;49.060;10.616;2023-08-30T08:35:49;11.73;;;10.55;;
57627;SDS011;43451;49.060;10.616;2023-08-30T08:38:15;11.95;;;10.20;;
57627;SDS011;43451;49.060;10.616;2023-08-30T08:40:40;10.77;;;9.68;;
57627;SDS011;43451;49.060;10.616;2023-08-30T08:43:06;15.15;;;11.35;;
57627;SDS011;43451;49.060;10.616;2023-08-30T08:45:34;13.68;;;12.23;;
57627;SDS011;43451;49.060;10.616;2023-08-30T08:48:04;12.85;;;10.95;;
57627;SDS011;43451;49.060;10.616;2023-08-30T08:50:34;11.73;;;10.52;;
57627;SDS011;43451;49.060;10.616;2023-08-30T08:52:59;11.15;;;10.05;;
57627;SDS011;43451;49.060;10.616;2023-08-30T08:55:28;11.70;;;10.50;;
57627;SDS011;43451;49.060;10.616;2023-08-30T08:57:55;11.57;;;9.90;;
57627;SDS011;43451;49.060;10.616;2023-08-30T09:00:22;11.18;;;10.02;;
57627;SDS011;43451;49.060;10.616;2023-08-30T09:02:49;11.35;;;9.95;;
57627;SDS011;43451;49.060;10.616;2023-08-30T09:05:17;10.43;;;9.38;;
57627;SDS011;43451;49.060;10.616;2023-08-30T09:07:44;11.48;;;9.68;;
57627;SDS011;43451;49.060;10.616;2023-08-30T09:10:10;12.50;;;9.77;;
57627;SDS011;43451;49.060;10.616;2023-08-30T09:12:36;10.68;;;9.40;;
57627;SDS011;43451;49.060;10.616;2023-08-30T09:15:02;10.70;;;7.97;;
57627;SDS011;43451;49.060;10.616;2023-08-30T09:17:39;8.40;;;7.60;;
57627;SDS011;43451;49.060;10.616;2023-08-30T09:20:11;8.80;;;7.75;;
57627;SDS011;43451;49.060;10.616;2023-08-30T09:22:41;7.72;;;6.90;;
57627;SDS011;43451;49.060;10.616;2023-08-30T09:25:08;8.27;;;7.18;;
57627;SDS011;43451;49.060;10.616;2023-08-30T09:27:34;10.80;;;7.68;;
57627;SDS011;43451;49.060;10.616;2023-08-30T09:30:00;8.32;;;7.30;;
57627;SDS011;43451;49.060;10.616;2023-08-30T09:32:28;11.90;;;7.78;;
57627;SDS011;43451;49.060;10.616;2023-08-30T09:34:53;8.88;;;7.38;;
57627;SDS011;43451;49.060;10.616;2023-08-30T09:37:19;8.23;;;6.88;;
57627;SDS011;43451;49.060;10.616;2023-08-30T09:39:52;10.75;;;7.53;;
57627;SDS011;43451;49.060;10.616;2023-08-30T09:42:18;9.13;;;7.45;;
57627;SDS011;43451;49.060;10.616;2023-08-30T09:44:44;8.85;;;7.30;;
57627;SDS011;43451;49.060;10.616;2023-08-30T09:47:09;8.63;;;6.60;;
57627;SDS011;43451;49.060;10.616;2023-08-30T09:49:44;8.10;;;7.00;;
57627;SDS011;43451;49.060;10.616;2023-08-30T09:52:12;8.15;;;7.18;;
57627;SDS011;43451;49.060;10.616;2023-08-30T09:54:41;8.15;;;7.00;;
57627;SDS011;43451;49.060;10.616;2023-08-30T09:57:09;7.72;;;6.93;;
57627;SDS011;43451;49.060;10.616;2023-08-30T09:59:35;7.60;;;6.90;;
57627;SDS011;43451;49.060;10.616;2023-08-30T10:04:29;7.70;;;6.47;;
57627;SDS011;43451;49.060;10.616;2023-08-30T10:06:56;8.53;;;6.97;;
57627;SDS011;43451;49.060;10.616;2023-08-30T10:09:25;8.57;;;7.22;;
57627;SDS011;43451;49.060;10.616;2023-08-30T10:11:51;7.20;;;6.50;;
57627;SDS011;43451;49.060;10.616;2023-08-30T10:14:16;7.63;;;6.90;;
57627;SDS011;43451;49.060;10.616;2023-08-30T10:16:46;7.80;;;6.47;;
57627;SDS011;43451;49.060;10.616;2023-08-30T10:21:44;7.97;;;7.03;;
57627;SDS011;43451;49.060;10.616;2023-08-30T10:24:13;8.18;;;5.70;;
57627;SDS011;43451;49.060;10.616;2023-08-30T10:26:42;7.28;;;5.88;;
57627;SDS011;43451;49.060;10.616;2023-08-30T10:29:09;6.55;;;5.57;;
57627;SDS011;43451;49.060;10.616;2023-08-30T10:31:38;7.50;;;5.80;;
57627;SDS011;43451;49.060;10.616;2023-08-30T10:34:11;6.78;;;5.82;;
57627;SDS011;43451;49.060;10.616;2023-08-30T10:36:40;6.80;;;6.10;;
57627;SDS011;43451;49.060;10.616;2023-08-30T10:39:11;6.45;;;5.57;;
57627;SDS011;43451;49.060;10.616;2023-08-30T10:41:37;6.90;;;6.05;;
57627;SDS011;43451;49.060;10.616;2023-08-30T10:44:03;6.03;;;5.40;;
57627;SDS011;43451;49.060;10.616;2023-08-30T10:46:32;7.30;;;5.50;;
57627;SDS011;43451;49.060;10.616;2023-08-30T10:49:09;6.40;;;5.75;;
57627;SDS011;43451;49.060;10.616;2023-08-30T10:51:37;6.90;;;6.18;;
57627;SDS011;43451;49.060;10.616;2023-08-30T10:54:13;6.75;;;5.97;;
57627;SDS011;43451;49.060;10.616;2023-08-30T10:56:56;6.50;;;5.80;;
57627;SDS011;43451;49.060;10.616;2023-08-30T10:59:28;5.85;;;4.97;;
57627;SDS011;43451;49.060;10.616;2023-08-30T11:02:00;6.70;;;5.20;;
57627;SDS011;43451;49.060;10.616;2023-08-30T11:04:26;6.53;;;5.32;;
57627;SDS011;43451;49.060;10.616;2023-08-30T11:06:52;7.22;;;5.18;;
57627;SDS011;43451;49.060;10.616;2023-08-30T11:09:19;7.68;;;4.65;;
57627;SDS011;43451;49.060;10.616;2023-08-30T11:11:46;7.35;;;5.20;;
57627;SDS011;43451;49.060;10.616;2023-08-30T11:14:13;6.25;;;4.28;;
57627;SDS011;43451;49.060;10.616;2023-08-30T11:16:40;4.82;;;4.22;;
57627;SDS011;43451;49.060;10.616;2023-08-30T11:19:06;5.57;;;4.13;;
57627;SDS011;43451;49.060;10.616;2023-08-30T11:21:33;5.97;;;4.30;;
57627;SDS011;43451;49.060;10.616;2023-08-30T11:24:02;4.35;;;3.60;;
57627;SDS011;43451;49.060;10.616;2023-08-30T11:28:54;4.03;;;2.90;;
57627;SDS011;43451;49.060;10.616;2023-08-30T11:33:53;3.95;;;3.20;;
57627;SDS011;43451;49.060;10.616;2023-08-30T11:36:24;4.03;;;3.30;;
57627;SDS011;43451;49.060;10.616;2023-08-30T11:38:52;3.88;;;3.47;;
57627;SDS011;43451;49.060;10.616;2023-08-30T11:41:20;5.75;;;3.92;;
57627;SDS011;43451;49.060;10.616;2023-08-30T11:43:50;5.60;;;3.37;;
57627;SDS011;43451;49.060;10.616;2023-08-30T11:46:17;4.40;;;3.45;;
57627;SDS011;43451;49.060;10.616;2023-08-30T11:48:43;5.53;;;3.10;;
57627;SDS011;43451;49.060;10.616;2023-08-30T11:51:10;3.78;;;3.15;;
57627;SDS011;43451;49.060;10.616;2023-08-30T11:53:37;3.72;;;3.30;;
57627;SDS011;43451;49.060;10.616;2023-08-30T11:56:04;5.45;;;3.30;;
57627;SDS011;43451;49.060;10.616;2023-08-30T11:58:34;4.95;;;3.70;;
57627;SDS011;43451;49.060;10.616;2023-08-30T12:01:01;5.35;;;3.42;;
57627;SDS011;43451;49.060;10.616;2023-08-30T12:03:28;3.90;;;3.50;;
57627;SDS011;43451;49.060;10.616;2023-08-30T12:05:54;7.00;;;3.45;;
57627;SDS011;43451;49.060;10.616;2023-08-30T12:08:20;4.03;;;3.30;;
57627;SDS011;43451;49.060;10.616;2023-08-30T12:10:48;4.15;;;3.28;;
57627;SDS011;43451;49.060;10.616;2023-08-30T12:15:49;3.78;;;3.17;;
57627;SDS011;43451;49.060;10.616;2023-08-30T12:18:16;3.88;;;3.47;;
57627;SDS011;43451;49.060;10.616;2023-08-30T12:20:51;3.17;;;2.97;;
57627;SDS011;43451;49.060;10.616;2023-08-30T12:23:25;3.67;;;3.33;;
57627;SDS011;43451;49.060;10.616;2023-08-30T12:28:26;5.68;;;3.05;;
57627;SDS011;43451;49.060;10.616;2023-08-30T12:30:53;3.28;;;2.78;;
57627;SDS011;43451;49.060;10.616;2023-08-30T12:33:19;4.85;;;3.10;;
57627;SDS011;43451;49.060;10.616;2023-08-30T12:35:45;4.03;;;2.75;;
57627;SDS011;43451;49.060;10.616;2023-08-30T12:38:10;5.18;;;3.10;;
57627;SDS011;43451;49.060;10.616;2023-08-30T12:40:46;3.25;;;2.88;;
57627;SDS011;43451;49.060;10.616;2023-08-30T12:43:13;2.90;;;2.50;;
57627;SDS011;43451;49.060;10.616;2023-08-30T12:45:39;3.20;;;2.90;;
57627;SDS011;43451;49.060;10.616;2023-08-30T12:48:09;3.90;;;2.67;;
57627;SDS011;43451;49.060;10.616;2023-08-30T12:50:40;3.08;;;2.50;;
57627;SDS011;43451;49.060;10.616;2023-08-30T12:55:33;2.47;;;2.28;;
57627;SDS011;43451;49.060;10.616;2023-08-30T12:58:00;2.55;;;2.08;;
57627;SDS011;43451;49.060;10.616;2023-08-30T13:00:26;2.60;;;2.38;;
57627;SDS011;43451;49.060;10.616;2023-08-30T13:02:52;3.10;;;2.30;;
57627;SDS011;43451;49.060;10.616;2023-08-30T13:05:18;4.40;;;4.00;;
57627;SDS011;43451;49.060;10.616;2023-08-30T13:07:44;5.38;;;4.30;;
57627;SDS011;43451;49.060;10.616;2023-08-30T13:10:10;4.30;;;3.85;;
57627;SDS011;43451;49.060;10.616;2023-08-30T13:12:36;4.80;;;4.30;;
57627;SDS011;43451;49.060;10.616;2023-08-30T13:15:02;5.40;;;3.90;;
57627;SDS011;43451;49.060;10.616;2023-08-30T13:17:29;7.57;;;4.33;;
57627;SDS011;43451;49.060;10.616;2023-08-30T13:19:54;5.03;;;4.43;;
57627;SDS011;43451;49.060;10.616;2023-08-30T13:22:22;5.60;;;4.55;;
57627;SDS011;43451;49.060;10.616;2023-08-30T13:24:47;4.70;;;4.15;;
57627;SDS011;43451;49.060;10.616;2023-08-30T13:27:13;4.45;;;4.00;;
57627;SDS011;43451;49.060;10.616;2023-08-30T13:29:38;5.03;;;4.53;;
57627;SDS011;43451;49.060;10.616;2023-08-30T13:32:04;5.03;;;4.32;;
57627;SDS011;43451;49.060;10.616;2023-08-30T13:34:30;6.43;;;4.57;;
57627;SDS011;43451;49.060;10.616;2023-08-30T13:36:55;7.45;;;5.05;;
57627;SDS011;43451;49.060;10.616;2023-08-30T13:39:20;5.53;;;4.28;;
57627;SDS011;43451;49.060;10.616;2023-08-30T13:41:47;7.43;;;4.75;;
57627;SDS011;43451;49.060;10.616;2023-08-30T13:44:13;6.97;;;4.75;;
57627;SDS011;43451;49.060;10.616;2023-08-30T13:46:39;6.03;;;4.72;;
57627;SDS011;43451;49.060;10.616;2023-08-30T13:49:05;5.65;;;4.75;;
57627;SDS011;43451;49.060;10.616;2023-08-30T13:51:30;4.97;;;4.47;;
57627;SDS011;43451;49.060;10.616;2023-08-30T13:53:56;6.85;;;5.03;;
57627;SDS011;43451;49.060;10.616;2023-08-30T13:56:22;5.95;;;5.32;;
57627;SDS011;43451;49.060;10.616;2023-08-30T13:58:47;5.60;;;5.00;;
57627;SDS011;43451;49.060;10.616;2023-08-30T14:01:13;6.47;;;4.72;;
57627;SDS011;43451;49.060;10.616;2023-08-30T14:03:39;4.30;;;3.67;;
57627;SDS011;43451;49.060;10.616;2023-08-30T14:06:05;5.25;;;3.80;;
57627;SDS011;43451;49.060;10.616;2023-08-30T14:08:30;4.38;;;3.97;;
57627;SDS011;43451;49.060;10.616;2023-08-30T14:10:57;4.20;;;3.80;;
57627;SDS011;43451;49.060;10.616;2023-08-30T14:13:22;4.80;;;4.30;;
57627;SDS011;43451;49.060;10.616;2023-08-30T14:15:48;3.03;;;2.72;;
57627;SDS011;43451;49.060;10.616;2023-08-30T14:18:14;2.70;;;2.50;;
57627;SDS011;43451;49.060;10.616;2023-08-30T14:20:41;3.22;;;2.42;;
57627;SDS011;43451;49.060;10.616;2023-08-30T14:23:07;2.15;;;1.95;;
57627;SDS011;43451;49.060;10.616;2023-08-30T14:25:32;2.33;;;1.88;;
57627;SDS011;43451;49.060;10.616;2023-08-30T14:27:58;3.60;;;2.22;;
57627;SDS011;43451;49.060;10.616;2023-08-30T14:30:24;2.50;;;2.30;;
57627;SDS011;43451;49.060;10.616;2023-08-30T14:32:51;3.08;;;2.40;;
57627;SDS011;43451;49.060;10.616;2023-08-30T14:35:16;2.85;;;2.55;;
57627;SDS011;43451;49.060;10.616;2023-08-30T14:37:42;3.15;;;2.47;;
57627;SDS011;43451;49.060;10.616;2023-08-30T14:40:07;2.60;;;2.35;;
57627;SDS011;43451;49.060;10.616;2023-08-30T14:42:33;2.95;;;2.65;;